Barlby, United Kingdom
Current Conditions -  °F | °C
As of 8:50 AM on Saturday 25 Oct 2014 (Local Time) from EGXU Reporting Station
Few Clouds Few Clouds  
Wind Chill: 39°   Ceiling: Unl
Heat Index: 45°   Visibility: 6mi
Dew Point: 45°   Wind: 10mph
Humidity: 100%   Direction: 130°SE
Pressure: 29.88"   Gusts: NA
Location:  53.8°N, 1.04°W
Report Text: EGXU 250750Z 13009KT 9999 FEW025 07/07 Q1012 BLU
Loading
Personal Weather Stations






























Interactive Weather Map New forecast layout! Learn more

10-Day Weather Forecast

Advertisements
Track Severe Weather on mobile